createdAt,value
2018-08-22T00:02:21.752Z,21.26
2018-08-22T00:04:50.527Z,21.25
2018-08-22T00:07:19.487Z,21.27
2018-08-22T00:09:48.450Z,21.45
2018-08-22T00:12:17.713Z,21.33
2018-08-22T00:14:46.952Z,21.39
2018-08-22T00:17:16.019Z,21.38
2018-08-22T00:19:44.983Z,21.36
2018-08-22T00:22:13.990Z,21.28
2018-08-22T00:24:43.436Z,21.21
2018-08-22T00:27:12.442Z,21.22
2018-08-22T00:29:41.680Z,21.22
2018-08-22T00:32:10.683Z,21.09
2018-08-22T00:34:39.739Z,20.99
2018-08-22T00:37:08.772Z,21.02
2018-08-22T00:39:37.813Z,20.90
2018-08-22T00:42:07.159Z,20.89
2018-08-22T00:44:36.036Z,20.91
2018-08-22T00:47:05.135Z,21.00
2018-08-22T00:49:34.299Z,20.94
2018-08-22T00:52:03.327Z,20.82
2018-08-22T00:54:32.589Z,20.75
2018-08-22T00:57:01.727Z,20.77
2018-08-22T00:59:30.929Z,20.81
2018-08-22T01:02:00.187Z,20.79
2018-08-22T01:04:29.359Z,20.64
2018-08-22T01:06:58.459Z,20.56
2018-08-22T01:09:27.511Z,20.53
2018-08-22T01:11:56.779Z,20.53
2018-08-22T01:14:26.108Z,20.45
2018-08-22T01:16:55.275Z,20.50
2018-08-22T01:19:24.329Z,20.49
2018-08-22T01:21:53.291Z,20.47
2018-08-22T01:24:22.492Z,20.34
2018-08-22T01:26:51.712Z,20.29
2018-08-22T01:29:20.640Z,20.37
2018-08-22T01:31:49.380Z,20.29
2018-08-22T01:34:19.059Z,20.26
2018-08-22T01:36:47.806Z,20.27
2018-08-22T01:39:16.660Z,20.27
2018-08-22T01:41:45.427Z,20.18
2018-08-22T01:44:14.219Z,20.11
2018-08-22T01:46:43.234Z,20.14
2018-08-22T01:49:12.034Z,20.04
2018-08-22T01:51:40.780Z,20.00
2018-08-22T01:54:09.776Z,19.89
2018-08-22T01:56:38.597Z,19.89
2018-08-22T01:59:07.855Z,19.82
2018-08-22T02:01:36.654Z,19.77
2018-08-22T02:04:05.395Z,19.75
2018-08-22T02:06:34.356Z,19.72
2018-08-22T02:09:03.176Z,19.72
2018-08-22T02:11:31.964Z,19.66
2018-08-22T02:14:00.728Z,19.51
2018-08-22T02:16:29.496Z,19.48
2018-08-22T02:18:58.794Z,19.48
2018-08-22T02:21:27.911Z,19.40
2018-08-22T02:23:57.191Z,19.38
2018-08-22T02:26:26.307Z,19.33
2018-08-22T02:28:55.052Z,19.33
2018-08-22T02:31:23.797Z,19.26
2018-08-22T02:33:52.894Z,19.25
2018-08-22T02:36:21.742Z,19.29
2018-08-22T02:38:50.590Z,19.16
2018-08-22T02:41:19.350Z,19.07
2018-08-22T02:43:48.116Z,18.99
2018-08-22T02:46:16.873Z,19.06
2018-08-22T02:48:50.705Z,19.00
2018-08-22T02:51:19.472Z,18.97
2018-08-22T02:53:48.297Z,18.90
2018-08-22T02:56:17.097Z,18.87
2018-08-22T02:58:45.869Z,18.80
2018-08-22T03:01:14.617Z,18.84
2018-08-22T03:03:43.386Z,18.81
2018-08-22T03:06:12.537Z,18.78
2018-08-22T03:08:41.766Z,18.72
2018-08-22T03:11:10.613Z,18.69
2018-08-22T03:13:39.374Z,18.69
2018-08-22T03:16:08.228Z,18.66
2018-08-22T03:18:37.006Z,18.65
2018-08-22T03:21:05.828Z,18.62
2018-08-22T03:23:34.862Z,18.63
2018-08-22T03:26:03.632Z,18.58
2018-08-22T03:28:32.413Z,18.70
2018-08-22T03:31:01.391Z,18.81
2018-08-22T03:33:30.149Z,18.83
2018-08-22T03:35:58.969Z,18.87
2018-08-22T03:38:27.885Z,18.87
2018-08-22T03:40:56.657Z,18.82
2018-08-22T03:43:25.436Z,18.78
2018-08-22T03:45:54.193Z,18.75
2018-08-22T03:48:22.993Z,18.76
2018-08-22T03:50:51.791Z,18.69
2018-08-22T03:53:20.609Z,18.61
2018-08-22T03:55:49.582Z,18.57
2018-08-22T04:00:46.038Z,18.53
2018-08-22T04:03:14.790Z,18.47
2018-08-22T04:05:43.577Z,18.45
2018-08-22T04:08:12.714Z,18.49
2018-08-22T04:10:41.845Z,18.43
2018-08-22T04:13:11.191Z,18.42
2018-08-22T04:15:40.205Z,18.41
2018-08-22T04:18:09.359Z,18.37
2018-08-22T04:20:38.782Z,18.31
2018-08-22T04:23:07.764Z,18.28
2018-08-22T04:25:36.804Z,18.25
2018-08-22T04:28:06.960Z,18.25
2018-08-22T04:30:35.805Z,18.18
2018-08-22T04:33:05.355Z,18.18
2018-08-22T04:35:34.181Z,18.14
2018-08-22T04:38:03.112Z,18.12
2018-08-22T04:40:31.893Z,18.07
2018-08-22T04:43:00.659Z,18.09
2018-08-22T04:45:29.427Z,18.09
2018-08-22T04:47:58.500Z,18.13
2018-08-22T04:50:27.649Z,18.15
2018-08-22T04:52:56.422Z,18.15
2018-08-22T04:55:25.679Z,18.15
2018-08-22T04:57:54.627Z,18.20
2018-08-22T05:00:23.874Z,18.25
2018-08-22T05:02:53.708Z,18.26
2018-08-22T05:05:22.530Z,18.30
2018-08-22T05:07:51.564Z,18.35
2018-08-22T05:10:21.376Z,18.37
2018-08-22T05:12:50.326Z,18.46
2018-08-22T05:15:19.144Z,18.50
2018-08-22T05:17:47.902Z,18.62
2018-08-22T05:20:17.958Z,18.67
2018-08-22T05:22:48.842Z,18.72
2018-08-22T05:25:18.030Z,18.80
2018-08-22T05:27:48.375Z,18.89
2018-08-22T05:30:17.602Z,19.04
2018-08-22T05:32:46.754Z,19.17
2018-08-22T05:35:15.733Z,19.37
2018-08-22T05:37:44.898Z,19.43
2018-08-22T05:40:14.030Z,19.49
2018-08-22T05:42:43.129Z,19.49
2018-08-22T05:45:12.221Z,19.54
2018-08-22T05:47:41.390Z,19.61
2018-08-22T05:50:10.509Z,19.63
2018-08-22T05:52:39.726Z,19.73
2018-08-22T05:55:08.697Z,19.86
2018-08-22T05:57:37.883Z,19.87
2018-08-22T06:00:07.350Z,19.90
2018-08-22T06:02:36.544Z,19.96
2018-08-22T06:05:05.805Z,20.01
2018-08-22T06:07:34.904Z,20.16
2018-08-22T06:10:04.185Z,20.34
2018-08-22T06:12:33.292Z,20.31
2018-08-22T06:15:02.366Z,20.32
2018-08-22T06:17:31.485Z,20.46
2018-08-22T06:20:00.561Z,20.58
2018-08-22T06:22:29.565Z,20.64
2018-08-22T06:24:58.436Z,20.79
2018-08-22T06:27:27.546Z,20.84
2018-08-22T06:29:56.653Z,21.02
2018-08-22T06:32:25.997Z,21.14
2018-08-22T06:34:55.253Z,21.18
2018-08-22T06:37:24.398Z,21.22
2018-08-22T06:39:53.633Z,21.23
2018-08-22T06:42:22.750Z,21.35
2018-08-22T06:44:51.824Z,21.60
2018-08-22T06:47:20.941Z,21.71
2018-08-22T06:49:49.820Z,22.01
2018-08-22T06:52:30.429Z,22.73
2018-08-22T06:54:59.481Z,24.34
2018-08-22T06:57:28.595Z,25.71
2018-08-22T06:59:57.801Z,27.18
2018-08-22T07:02:26.880Z,28.01
2018-08-22T07:04:56.118Z,28.60
2018-08-22T07:07:25.378Z,29.62
2018-08-22T07:09:54.579Z,30.46
2018-08-22T07:12:23.889Z,30.77
2018-08-22T07:14:52.768Z,31.07
2018-08-22T07:17:21.856Z,31.14
2018-08-22T07:19:51.010Z,31.82
2018-08-22T07:22:20.155Z,31.54
2018-08-22T07:24:49.253Z,31.86
2018-08-22T07:27:18.242Z,32.16
2018-08-22T07:29:47.238Z,32.43
2018-08-22T07:32:16.229Z,32.79
2018-08-22T07:34:45.277Z,33.03
2018-08-22T07:37:14.671Z,32.86
2018-08-22T07:39:43.927Z,32.92
2018-08-22T07:42:13.044Z,33.21
2018-08-22T07:44:42.109Z,33.42
2018-08-22T07:47:11.251Z,33.72
2018-08-22T07:49:40.425Z,33.78
2018-08-22T07:52:09.398Z,33.87
2018-08-22T07:54:45.000Z,34.06
2018-08-22T07:57:15.517Z,34.05
2018-08-22T07:59:44.584Z,34.04
2018-08-22T08:02:13.654Z,33.64
2018-08-22T08:04:42.867Z,33.79
2018-08-22T08:07:12.108Z,33.98
2018-08-22T08:09:41.351Z,33.63
2018-08-22T08:12:10.349Z,33.26
2018-08-22T08:14:39.456Z,32.76
2018-08-22T08:17:08.540Z,32.86
2018-08-22T08:19:37.547Z,32.36
2018-08-22T08:22:06.629Z,32.54
2018-08-22T08:24:35.901Z,32.16
2018-08-22T08:27:05.010Z,32.30
2018-08-22T08:29:33.736Z,31.88
2018-08-22T08:32:02.788Z,31.52
2018-08-22T08:34:31.521Z,31.28
2018-08-22T08:37:00.279Z,31.08
2018-08-22T08:39:29.033Z,30.25
2018-08-22T08:41:57.824Z,30.28
2018-08-22T08:44:26.566Z,29.83
2018-08-22T08:46:55.333Z,29.91
2018-08-22T08:49:24.106Z,30.24
2018-08-22T08:51:59.908Z,30.25
2018-08-22T08:54:29.064Z,30.25
2018-08-22T08:56:57.948Z,30.00
2018-08-22T08:59:26.718Z,29.10
2018-08-22T09:01:55.464Z,29.53
2018-08-22T09:04:24.204Z,29.67
2018-08-22T09:06:52.941Z,29.60
2018-08-22T09:09:27.944Z,29.82
2018-08-22T09:12:00.892Z,30.24
2018-08-22T09:14:30.192Z,30.14
2018-08-22T09:16:59.780Z,30.28
2018-08-22T09:19:28.843Z,30.30
2018-08-22T09:21:57.627Z,30.35
2018-08-22T09:24:26.515Z,30.62
2018-08-22T09:26:55.273Z,30.78
2018-08-22T09:29:24.560Z,30.59
2018-08-22T09:31:53.293Z,30.58
2018-08-22T09:34:22.148Z,29.81
2018-08-22T09:36:50.982Z,30.60
2018-08-22T09:39:19.761Z,31.07
2018-08-22T09:41:48.524Z,30.89
2018-08-22T09:44:17.287Z,30.64
2018-08-22T09:46:46.157Z,30.69
2018-08-22T09:49:14.991Z,30.67
2018-08-22T09:51:43.732Z,30.76
2018-08-22T09:54:12.485Z,30.67
2018-08-22T09:56:41.225Z,31.05
2018-08-22T09:59:09.980Z,30.60
2018-08-22T10:01:44.821Z,30.55
2018-08-22T10:04:13.568Z,31.19
2018-08-22T10:06:44.629Z,31.08
2018-08-22T10:09:17.854Z,30.96
2018-08-22T10:11:46.688Z,31.43
2018-08-22T10:14:15.540Z,31.66
2018-08-22T10:16:44.324Z,31.63
2018-08-22T10:19:13.081Z,31.60
2018-08-22T10:21:41.848Z,31.60
2018-08-22T10:24:10.601Z,31.34
2018-08-22T10:26:39.383Z,31.50
2018-08-22T10:29:08.144Z,31.52
2018-08-22T10:31:36.902Z,32.08
2018-08-22T10:34:05.750Z,32.26
2018-08-22T10:36:34.504Z,32.39
2018-08-22T10:39:04.094Z,32.45
2018-08-22T10:41:32.851Z,32.33
2018-08-22T10:44:01.591Z,32.73
2018-08-22T10:46:30.332Z,32.91
2018-08-22T10:48:59.068Z,32.91
2018-08-22T10:51:27.922Z,32.93
2018-08-22T10:53:56.729Z,32.81
2018-08-22T10:56:25.462Z,33.49
2018-08-22T10:58:54.215Z,32.99
2018-08-22T11:01:23.072Z,33.31
2018-08-22T11:03:51.877Z,33.39
2018-08-22T11:06:20.621Z,32.29
2018-08-22T11:08:49.378Z,32.45
2018-08-22T11:11:18.166Z,33.01
2018-08-22T11:13:46.952Z,33.78
2018-08-22T11:16:15.726Z,34.05
2018-08-22T11:18:44.531Z,33.45
2018-08-22T11:21:24.408Z,33.29
2018-08-22T11:24:04.378Z,33.05
2018-08-22T11:26:44.253Z,33.00
2018-08-22T11:29:24.067Z,33.79
2018-08-22T11:32:04.065Z,34.17
2018-08-22T11:34:44.224Z,34.23
2018-08-22T11:37:14.227Z,34.29
2018-08-22T11:39:46.103Z,34.28
2018-08-22T11:42:14.986Z,34.52
2018-08-22T11:44:43.773Z,34.43
2018-08-22T11:47:12.532Z,34.38
2018-08-22T11:49:41.334Z,33.94
2018-08-22T11:52:10.108Z,33.31
2018-08-22T11:54:38.942Z,33.04
2018-08-22T11:57:07.681Z,34.00
2018-08-22T11:59:36.440Z,34.40
2018-08-22T12:02:05.301Z,33.72
2018-08-22T12:04:34.048Z,33.93
2018-08-22T12:07:02.820Z,34.19
2018-08-22T12:09:31.584Z,33.48
2018-08-22T12:12:00.383Z,33.67
2018-08-22T12:14:29.140Z,33.45
2018-08-22T12:16:57.886Z,32.47
2018-08-22T12:19:26.638Z,32.63
2018-08-22T12:21:55.448Z,32.26
2018-08-22T12:24:24.223Z,32.22
2018-08-22T12:26:53.010Z,32.85
2018-08-22T12:29:21.796Z,33.66
2018-08-22T12:31:50.599Z,34.24
2018-08-22T12:34:19.361Z,34.49
2018-08-22T12:36:48.404Z,34.40
2018-08-22T12:39:17.177Z,33.85
2018-08-22T12:41:45.952Z,33.65
2018-08-22T12:44:14.700Z,33.18
2018-08-22T12:46:43.472Z,33.27
2018-08-22T12:49:12.238Z,33.32
2018-08-22T12:51:41.005Z,34.37
2018-08-22T12:54:09.753Z,34.28
2018-08-22T12:56:38.540Z,33.47
2018-08-22T12:59:07.377Z,32.59
2018-08-22T13:01:36.480Z,32.42
2018-08-22T13:04:05.376Z,32.00
2018-08-22T13:06:34.217Z,32.04
2018-08-22T13:09:03.088Z,32.14
2018-08-22T13:11:31.928Z,32.43
2018-08-22T13:14:00.672Z,33.18
2018-08-22T13:16:29.450Z,33.87
2018-08-22T13:18:58.253Z,34.31
2018-08-22T13:21:27.014Z,34.46
2018-08-22T13:23:55.839Z,35.05
2018-08-22T13:26:24.564Z,35.13
2018-08-22T13:28:53.332Z,35.53
2018-08-22T13:31:22.324Z,36.00
2018-08-22T13:33:51.101Z,35.98
2018-08-22T13:36:19.898Z,35.89
2018-08-22T13:38:48.629Z,35.63
2018-08-22T13:41:17.408Z,35.34
2018-08-22T13:43:46.189Z,34.97
2018-08-22T13:46:14.942Z,35.58
2018-08-22T13:48:43.722Z,34.88
2018-08-22T13:51:12.480Z,35.22
2018-08-22T13:53:41.694Z,35.53
2018-08-22T13:56:10.554Z,35.93
2018-08-22T13:58:39.221Z,36.41
2018-08-22T14:01:08.008Z,36.37
2018-08-22T14:03:36.857Z,35.76
2018-08-22T14:06:05.604Z,36.11
2018-08-22T14:08:34.434Z,36.24
2018-08-22T14:11:03.253Z,35.81
2018-08-22T14:13:32.010Z,36.36
2018-08-22T14:16:00.893Z,35.96
2018-08-22T14:18:29.878Z,35.73
2018-08-22T14:20:58.665Z,35.18
2018-08-22T14:23:27.437Z,35.09
2018-08-22T14:25:56.248Z,35.14
2018-08-22T14:28:25.040Z,35.11
2018-08-22T14:30:53.824Z,35.74
2018-08-22T14:33:22.592Z,35.66
2018-08-22T14:35:51.335Z,35.62
2018-08-22T14:38:20.110Z,35.97
2018-08-22T14:40:48.866Z,35.82
2018-08-22T14:43:17.644Z,36.53
2018-08-22T14:45:46.515Z,35.83
2018-08-22T14:48:15.417Z,35.92
2018-08-22T14:50:44.218Z,35.37
2018-08-22T14:53:13.010Z,35.46
2018-08-22T14:55:41.846Z,35.69
2018-08-22T14:58:10.606Z,35.61
2018-08-22T15:00:39.394Z,35.89
2018-08-22T15:03:08.344Z,35.16
2018-08-22T15:05:36.967Z,34.72
2018-08-22T15:08:05.765Z,35.44
2018-08-22T15:10:34.573Z,35.12
2018-08-22T15:13:03.800Z,35.23
2018-08-22T15:15:32.549Z,35.10
2018-08-22T15:18:01.309Z,35.14
2018-08-22T15:20:30.072Z,35.51
2018-08-22T15:22:58.870Z,34.50
2018-08-22T15:25:27.653Z,34.85
2018-08-22T15:27:56.488Z,34.59
2018-08-22T15:30:25.273Z,34.40
2018-08-22T15:32:54.092Z,35.04
2018-08-22T15:35:23.340Z,34.90
2018-08-22T15:37:52.367Z,34.92
2018-08-22T15:40:21.134Z,34.70
2018-08-22T15:42:49.943Z,34.43
2018-08-22T15:45:18.777Z,34.00
2018-08-22T15:47:47.575Z,33.63
2018-08-22T15:50:16.357Z,34.04
2018-08-22T15:52:45.113Z,33.93
2018-08-22T15:55:15.930Z,33.51
2018-08-22T15:57:58.138Z,33.34
2018-08-22T16:00:38.026Z,33.31
2018-08-22T16:03:07.923Z,33.27
2018-08-22T16:05:37.592Z,33.02
2018-08-22T16:08:06.935Z,32.06
2018-08-22T16:10:35.801Z,31.72
2018-08-22T16:13:04.627Z,31.50
2018-08-22T16:15:34.650Z,31.66
2018-08-22T16:18:08.120Z,31.35
2018-08-22T16:20:44.557Z,31.23
2018-08-22T16:23:13.434Z,30.98
2018-08-22T16:25:51.447Z,30.80
2018-08-22T16:28:20.546Z,30.65
2018-08-22T16:30:56.952Z,30.38
2018-08-22T16:33:20.380Z,30.29
2018-08-22T16:35:49.412Z,30.12
2018-08-22T16:38:18.240Z,29.95
2018-08-22T16:40:52.442Z,29.72
2018-08-22T16:43:37.386Z,29.07
2018-08-22T16:46:08.273Z,28.80
2018-08-22T16:48:37.341Z,28.72
2018-08-22T16:51:06.192Z,28.63
2018-08-22T16:53:35.632Z,28.49
2018-08-22T16:56:04.796Z,28.47
2018-08-22T16:58:33.905Z,28.38
2018-08-22T17:01:02.650Z,28.32
2018-08-22T17:03:31.641Z,28.39
2018-08-22T17:06:05.740Z,28.33
2018-08-22T17:08:34.705Z,28.27
2018-08-22T17:11:05.818Z,28.24
2018-08-22T17:13:51.535Z,28.09
2018-08-22T17:16:20.831Z,28.08
2018-08-22T17:18:49.610Z,27.94
2018-08-22T17:21:18.442Z,27.93
2018-08-22T17:23:47.600Z,27.90
2018-08-22T17:26:20.555Z,27.91
2018-08-22T17:28:50.257Z,27.91
2018-08-22T17:31:20.129Z,27.91
2018-08-22T17:33:59.234Z,27.97
2018-08-22T17:36:28.085Z,28.00
2018-08-22T17:38:57.985Z,28.01
2018-08-22T17:41:28.658Z,27.99
2018-08-22T17:44:13.248Z,27.94
2018-08-22T17:46:48.689Z,27.93
2018-08-22T17:49:19.495Z,27.87
2018-08-22T17:52:04.060Z,27.87
2018-08-22T17:54:34.549Z,27.64
2018-08-22T17:57:23.312Z,27.57
2018-08-22T17:59:54.006Z,27.57
2018-08-22T18:02:25.232Z,27.59
2018-08-22T18:04:57.489Z,27.60
2018-08-22T18:07:26.290Z,27.58
2018-08-22T18:09:55.072Z,27.54
2018-08-22T18:12:25.749Z,27.48
2018-08-22T18:14:56.517Z,27.53
2018-08-22T18:17:25.335Z,27.48
2018-08-22T18:19:54.372Z,27.37
2018-08-22T18:22:27.476Z,27.18
2018-08-22T18:24:56.810Z,27.13
2018-08-22T18:27:25.904Z,27.10
2018-08-22T18:29:55.130Z,27.05
2018-08-22T18:32:24.036Z,27.05
2018-08-22T18:35:07.404Z,27.00
2018-08-22T18:37:36.465Z,26.92
2018-08-22T18:40:17.907Z,26.83
2018-08-22T18:42:53.192Z,26.82
2018-08-22T18:45:22.507Z,26.71
2018-08-22T18:47:51.561Z,26.66
2018-08-22T18:50:20.812Z,26.63
2018-08-22T18:52:53.455Z,26.52
2018-08-22T18:55:24.437Z,26.47
2018-08-22T18:57:53.964Z,26.36
2018-08-22T19:00:22.915Z,26.25
2018-08-22T19:02:53.987Z,26.20
2018-08-22T19:05:27.221Z,26.12
2018-08-22T19:08:05.605Z,26.14
2018-08-22T19:10:35.826Z,26.09
2018-08-22T19:13:09.942Z,25.93
2018-08-22T19:15:39.532Z,25.87
2018-08-22T19:18:14.060Z,25.80
2018-08-22T19:20:43.144Z,25.76
2018-08-22T19:23:12.133Z,25.78
2018-08-22T19:25:41.037Z,25.63
2018-08-22T19:28:10.028Z,25.54
2018-08-22T19:30:39.677Z,25.42
2018-08-22T19:33:10.780Z,25.37
2018-08-22T19:35:40.219Z,25.36
2018-08-22T19:38:09.156Z,25.41
2018-08-22T19:40:38.299Z,25.23
2018-08-22T19:43:07.319Z,25.13
2018-08-22T19:45:36.865Z,25.05
2018-08-22T19:48:05.730Z,24.96
2018-08-22T19:50:34.992Z,24.92
2018-08-22T19:53:03.898Z,24.87
2018-08-22T19:55:33.328Z,24.84
2018-08-22T19:58:02.292Z,24.77
2018-08-22T20:00:31.165Z,24.66
2018-08-22T20:03:43.318Z,24.62
2018-08-22T20:06:14.616Z,24.54
2018-08-22T20:08:45.286Z,24.49
2018-08-22T20:11:14.137Z,24.49
2018-08-22T20:13:51.374Z,24.41
2018-08-22T20:16:21.622Z,24.34
2018-08-22T20:18:55.143Z,24.35
2018-08-22T20:21:32.522Z,24.34
2018-08-22T20:24:02.462Z,24.26
2018-08-22T20:26:32.113Z,24.27
2018-08-22T20:29:01.880Z,24.23
2018-08-22T20:31:30.947Z,24.17
2018-08-22T20:34:05.870Z,24.11
2018-08-22T20:36:35.136Z,24.08
2018-08-22T20:39:06.475Z,24.04
2018-08-22T20:41:35.769Z,24.01
2018-08-22T20:44:08.568Z,24.00
2018-08-22T20:46:38.045Z,23.97
2018-08-22T20:49:07.388Z,23.94
2018-08-22T20:51:37.478Z,23.95
2018-08-22T20:54:10.687Z,23.87
2018-08-22T20:56:45.799Z,23.81
2018-08-22T20:59:15.584Z,23.81
2018-08-22T21:01:46.574Z,23.75
2018-08-22T21:04:15.372Z,23.68
2018-08-22T21:06:44.138Z,23.61
2018-08-22T21:09:13.135Z,23.66
2018-08-22T21:11:42.608Z,23.55
2018-08-22T21:14:11.516Z,23.48
2018-08-22T21:16:40.278Z,23.37
2018-08-22T21:19:09.029Z,23.30
2018-08-22T21:21:37.789Z,23.27
2018-08-22T21:24:06.590Z,23.18
2018-08-22T21:26:40.185Z,23.17
2018-08-22T21:29:08.981Z,23.16
2018-08-22T21:31:39.800Z,22.99
2018-08-22T21:34:14.084Z,22.92
2018-08-22T21:36:45.922Z,22.86
2018-08-22T21:39:22.223Z,22.84
2018-08-22T21:41:51.082Z,22.83
2018-08-22T21:44:21.161Z,22.83
2018-08-22T21:46:59.035Z,22.79
2018-08-22T21:49:28.316Z,22.69
2018-08-22T21:51:58.586Z,22.66
2018-08-22T21:54:27.483Z,22.59
2018-08-22T21:56:56.267Z,22.55
2018-08-22T21:59:25.069Z,22.52
2018-08-22T22:01:59.002Z,22.47
2018-08-22T22:04:35.153Z,22.40
2018-08-22T22:07:05.082Z,22.37
2018-08-22T22:09:34.322Z,22.32
2018-08-22T22:12:03.625Z,22.20
2018-08-22T22:14:33.640Z,22.15
2018-08-22T22:17:03.251Z,22.14
2018-08-22T22:19:33.980Z,22.15
2018-08-22T22:22:03.388Z,22.10
2018-08-22T22:24:32.343Z,22.09
2018-08-22T22:27:01.124Z,22.03
2018-08-22T22:29:32.692Z,22.02
2018-08-22T22:32:01.477Z,22.12
2018-08-22T22:34:30.309Z,22.13
2018-08-22T22:36:59.077Z,22.12
2018-08-22T22:39:41.065Z,22.08
2018-08-22T22:42:15.625Z,22.13
2018-08-22T22:44:47.669Z,22.16
2018-08-22T22:47:21.643Z,22.34
2018-08-22T22:49:51.084Z,22.26
2018-08-22T22:52:26.557Z,22.26
2018-08-22T22:54:57.597Z,22.31
2018-08-22T22:57:26.657Z,22.34
2018-08-22T22:59:55.636Z,22.37
2018-08-22T23:02:25.768Z,22.42
2018-08-22T23:04:55.492Z,22.39
2018-08-22T23:07:28.656Z,22.30
2018-08-22T23:09:58.594Z,22.25
2018-08-22T23:12:47.740Z,22.23
2018-08-22T23:15:23.151Z,22.20
2018-08-22T23:17:55.128Z,22.17
2018-08-22T23:20:37.855Z,22.09
2018-08-22T23:23:22.678Z,22.02
2018-08-22T23:25:53.046Z,22.04
2018-08-22T23:28:21.833Z,21.92
2018-08-22T23:30:50.592Z,21.76
2018-08-22T23:33:19.359Z,21.50
2018-08-22T23:35:48.303Z,21.33
2018-08-22T23:38:27.857Z,21.24
2018-08-22T23:40:58.492Z,21.23
2018-08-22T23:43:30.871Z,21.19
2018-08-22T23:45:59.660Z,21.25
2018-08-22T23:48:34.697Z,21.29
2018-08-22T23:51:05.639Z,21.24
2018-08-22T23:53:38.581Z,21.23
2018-08-22T23:56:23.276Z,21.19
2018-08-22T23:58:52.782Z,21.06
